sensor_id;sensor_type;location;lat;lon;timestamp;P1;durP1;ratioP1;P2;durP2;ratioP2
44842;SDS011;31884;52.538;13.820;2022-07-29T00:00:01;4.20;;;3.10;;
44842;SDS011;31884;52.538;13.820;2022-07-29T00:02:28;6.63;;;2.72;;
44842;SDS011;31884;52.538;13.820;2022-07-29T00:04:53;8.35;;;3.38;;
44842;SDS011;31884;52.538;13.820;2022-07-29T00:07:19;7.75;;;3.17;;
44842;SDS011;31884;52.538;13.820;2022-07-29T00:09:44;7.90;;;3.95;;
44842;SDS011;31884;52.538;13.820;2022-07-29T00:12:10;8.40;;;3.33;;
44842;SDS011;31884;52.538;13.820;2022-07-29T00:14:35;7.80;;;3.88;;
44842;SDS011;31884;52.538;13.820;2022-07-29T00:17:01;10.90;;;4.30;;
44842;SDS011;31884;52.538;13.820;2022-07-29T00:19:26;6.90;;;4.25;;
44842;SDS011;31884;52.538;13.820;2022-07-29T00:21:51;7.68;;;4.20;;
44842;SDS011;31884;52.538;13.820;2022-07-29T00:24:17;6.20;;;3.53;;
44842;SDS011;31884;52.538;13.820;2022-07-29T00:26:43;5.55;;;3.30;;
44842;SDS011;31884;52.538;13.820;2022-07-29T00:29:08;6.03;;;3.53;;
44842;SDS011;31884;52.538;13.820;2022-07-29T00:31:33;5.95;;;3.15;;
44842;SDS011;31884;52.538;13.820;2022-07-29T00:33:59;5.80;;;3.58;;
44842;SDS011;31884;52.538;13.820;2022-07-29T00:36:24;7.55;;;3.50;;
44842;SDS011;31884;52.538;13.820;2022-07-29T00:38:50;6.47;;;3.30;;
44842;SDS011;31884;52.538;13.820;2022-07-29T00:41:17;7.70;;;3.33;;
44842;SDS011;31884;52.538;13.820;2022-07-29T00:43:43;6.20;;;3.00;;
44842;SDS011;31884;52.538;13.820;2022-07-29T00:46:09;9.70;;;3.17;;
44842;SDS011;31884;52.538;13.820;2022-07-29T00:48:35;5.95;;;3.58;;
44842;SDS011;31884;52.538;13.820;2022-07-29T00:51:01;6.63;;;2.97;;
44842;SDS011;31884;52.538;13.820;2022-07-29T00:53:28;8.98;;;3.03;;
44842;SDS011;31884;52.538;13.820;2022-07-29T00:55:55;7.05;;;3.88;;
44842;SDS011;31884;52.538;13.820;2022-07-29T00:58:21;6.80;;;3.35;;
44842;SDS011;31884;52.538;13.820;2022-07-29T01:00:47;5.25;;;2.72;;
44842;SDS011;31884;52.538;13.820;2022-07-29T01:03:12;6.95;;;3.10;;
44842;SDS011;31884;52.538;13.820;2022-07-29T01:05:38;7.40;;;3.63;;
44842;SDS011;31884;52.538;13.820;2022-07-29T01:08:07;5.05;;;3.45;;
44842;SDS011;31884;52.538;13.820;2022-07-29T01:10:33;6.90;;;3.20;;
44842;SDS011;31884;52.538;13.820;2022-07-29T01:13:03;6.00;;;3.28;;
44842;SDS011;31884;52.538;13.820;2022-07-29T01:15:29;4.93;;;2.63;;
44842;SDS011;31884;52.538;13.820;2022-07-29T01:18:03;7.35;;;3.65;;
44842;SDS011;31884;52.538;13.820;2022-07-29T01:23:58;7.25;;;3.55;;
44842;SDS011;31884;52.538;13.820;2022-07-29T01:32:05;7.20;;;3.10;;
44842;SDS011;31884;52.538;13.820;2022-07-29T01:34:41;7.47;;;3.33;;
44842;SDS011;31884;52.538;13.820;2022-07-29T01:37:38;5.97;;;3.38;;
44842;SDS011;31884;52.538;13.820;2022-07-29T01:40:14;9.38;;;3.58;;
44842;SDS011;31884;52.538;13.820;2022-07-29T01:42:51;4.90;;;3.35;;
44842;SDS011;31884;52.538;13.820;2022-07-29T01:45:20;6.80;;;3.40;;
44842;SDS011;31884;52.538;13.820;2022-07-29T01:50:40;6.95;;;3.15;;
44842;SDS011;31884;52.538;13.820;2022-07-29T01:53:15;6.07;;;2.90;;
44842;SDS011;31884;52.538;13.820;2022-07-29T01:58:17;6.70;;;2.75;;
44842;SDS011;31884;52.538;13.820;2022-07-29T02:00:43;8.35;;;3.33;;
44842;SDS011;31884;52.538;13.820;2022-07-29T02:03:11;5.30;;;3.80;;
44842;SDS011;31884;52.538;13.820;2022-07-29T02:05:39;3.88;;;2.47;;
44842;SDS011;31884;52.538;13.820;2022-07-29T02:08:07;6.80;;;3.05;;
44842;SDS011;31884;52.538;13.820;2022-07-29T02:10:34;10.27;;;3.65;;
44842;SDS011;31884;52.538;13.820;2022-07-29T02:13:02;7.22;;;3.72;;
44842;SDS011;31884;52.538;13.820;2022-07-29T02:15:30;6.20;;;3.53;;
44842;SDS011;31884;52.538;13.820;2022-07-29T02:18:07;11.80;;;3.63;;
44842;SDS011;31884;52.538;13.820;2022-07-29T02:20:36;8.20;;;3.67;;
44842;SDS011;31884;52.538;13.820;2022-07-29T02:23:04;6.18;;;2.92;;
44842;SDS011;31884;52.538;13.820;2022-07-29T02:25:30;9.40;;;3.63;;
44842;SDS011;31884;52.538;13.820;2022-07-29T02:27:56;5.10;;;3.10;;
44842;SDS011;31884;52.538;13.820;2022-07-29T02:30:23;6.43;;;3.15;;
44842;SDS011;31884;52.538;13.820;2022-07-29T02:32:50;4.43;;;2.58;;
44842;SDS011;31884;52.538;13.820;2022-07-29T02:35:18;7.43;;;3.00;;
44842;SDS011;31884;52.538;13.820;2022-07-29T02:37:46;7.57;;;2.90;;
44842;SDS011;31884;52.538;13.820;2022-07-29T02:40:33;6.32;;;2.70;;
44842;SDS011;31884;52.538;13.820;2022-07-29T02:43:00;4.13;;;2.90;;
44842;SDS011;31884;52.538;13.820;2022-07-29T02:45:28;6.20;;;3.03;;
44842;SDS011;31884;52.538;13.820;2022-07-29T02:47:54;9.68;;;3.55;;
44842;SDS011;31884;52.538;13.820;2022-07-29T02:50:27;4.80;;;2.75;;
44842;SDS011;31884;52.538;13.820;2022-07-29T02:53:07;4.57;;;2.95;;
44842;SDS011;31884;52.538;13.820;2022-07-29T02:55:45;3.75;;;2.55;;
44842;SDS011;31884;52.538;13.820;2022-07-29T02:58:27;5.88;;;3.00;;
44842;SDS011;31884;52.538;13.820;2022-07-29T03:00:56;6.65;;;2.65;;
44842;SDS011;31884;52.538;13.820;2022-07-29T03:03:28;5.78;;;3.17;;
44842;SDS011;31884;52.538;13.820;2022-07-29T03:06:03;7.60;;;3.28;;
44842;SDS011;31884;52.538;13.820;2022-07-29T03:08:29;8.60;;;3.40;;
44842;SDS011;31884;52.538;13.820;2022-07-29T03:10:57;8.50;;;2.85;;
44842;SDS011;31884;52.538;13.820;2022-07-29T03:13:23;3.72;;;2.70;;
44842;SDS011;31884;52.538;13.820;2022-07-29T03:15:49;6.53;;;2.88;;
44842;SDS011;31884;52.538;13.820;2022-07-29T03:18:15;4.63;;;2.50;;
44842;SDS011;31884;52.538;13.820;2022-07-29T03:20:41;5.13;;;2.90;;
44842;SDS011;31884;52.538;13.820;2022-07-29T03:23:08;5.43;;;2.88;;
44842;SDS011;31884;52.538;13.820;2022-07-29T03:25:33;6.25;;;3.40;;
44842;SDS011;31884;52.538;13.820;2022-07-29T03:27:59;4.90;;;2.88;;
44842;SDS011;31884;52.538;13.820;2022-07-29T03:30:25;4.90;;;2.92;;
44842;SDS011;31884;52.538;13.820;2022-07-29T03:32:51;7.00;;;3.22;;
44842;SDS011;31884;52.538;13.820;2022-07-29T03:35:17;4.43;;;2.67;;
44842;SDS011;31884;52.538;13.820;2022-07-29T03:37:43;6.45;;;2.90;;
44842;SDS011;31884;52.538;13.820;2022-07-29T03:40:10;7.00;;;2.95;;
44842;SDS011;31884;52.538;13.820;2022-07-29T03:42:39;6.25;;;3.22;;
44842;SDS011;31884;52.538;13.820;2022-07-29T03:45:07;5.55;;;3.13;;
44842;SDS011;31884;52.538;13.820;2022-07-29T03:47:38;7.68;;;2.95;;
44842;SDS011;31884;52.538;13.820;2022-07-29T03:50:07;6.32;;;3.03;;
44842;SDS011;31884;52.538;13.820;2022-07-29T03:52:35;4.35;;;2.67;;
44842;SDS011;31884;52.538;13.820;2022-07-29T03:55:01;3.53;;;2.85;;
44842;SDS011;31884;52.538;13.820;2022-07-29T03:57:27;5.70;;;3.20;;
44842;SDS011;31884;52.538;13.820;2022-07-29T03:59:55;6.45;;;3.25;;
44842;SDS011;31884;52.538;13.820;2022-07-29T04:02:21;4.78;;;2.92;;
44842;SDS011;31884;52.538;13.820;2022-07-29T04:04:47;6.85;;;2.75;;
44842;SDS011;31884;52.538;13.820;2022-07-29T04:07:13;6.00;;;2.50;;
44842;SDS011;31884;52.538;13.820;2022-07-29T04:09:40;5.78;;;3.30;;
44842;SDS011;31884;52.538;13.820;2022-07-29T04:12:06;7.65;;;3.03;;
44842;SDS011;31884;52.538;13.820;2022-07-29T04:14:32;3.75;;;2.17;;
44842;SDS011;31884;52.538;13.820;2022-07-29T04:16:58;6.65;;;2.45;;
44842;SDS011;31884;52.538;13.820;2022-07-29T04:19:24;5.05;;;2.55;;
44842;SDS011;31884;52.538;13.820;2022-07-29T04:21:50;7.07;;;2.92;;
44842;SDS011;31884;52.538;13.820;2022-07-29T04:24:16;6.75;;;3.00;;
44842;SDS011;31884;52.538;13.820;2022-07-29T04:26:41;4.40;;;2.75;;
44842;SDS011;31884;52.538;13.820;2022-07-29T04:29:07;6.00;;;2.80;;
44842;SDS011;31884;52.538;13.820;2022-07-29T04:31:32;6.65;;;2.88;;
44842;SDS011;31884;52.538;13.820;2022-07-29T04:33:58;6.15;;;2.58;;
44842;SDS011;31884;52.538;13.820;2022-07-29T04:36:23;7.45;;;2.70;;
44842;SDS011;31884;52.538;13.820;2022-07-29T04:38:49;11.80;;;3.00;;
44842;SDS011;31884;52.538;13.820;2022-07-29T04:41:15;4.63;;;2.95;;
44842;SDS011;31884;52.538;13.820;2022-07-29T04:43:40;6.00;;;2.60;;
44842;SDS011;31884;52.538;13.820;2022-07-29T04:46:06;4.90;;;2.50;;
44842;SDS011;31884;52.538;13.820;2022-07-29T04:48:31;5.32;;;3.00;;
44842;SDS011;31884;52.538;13.820;2022-07-29T04:50:57;5.80;;;2.47;;
44842;SDS011;31884;52.538;13.820;2022-07-29T04:53:23;4.53;;;3.03;;
44842;SDS011;31884;52.538;13.820;2022-07-29T04:55:49;4.90;;;2.92;;
44842;SDS011;31884;52.538;13.820;2022-07-29T04:58:14;3.22;;;2.20;;
44842;SDS011;31884;52.538;13.820;2022-07-29T05:00:40;4.90;;;2.45;;
44842;SDS011;31884;52.538;13.820;2022-07-29T05:03:05;6.70;;;2.72;;
44842;SDS011;31884;52.538;13.820;2022-07-29T05:05:31;4.47;;;2.58;;
44842;SDS011;31884;52.538;13.820;2022-07-29T05:07:56;4.57;;;2.47;;
44842;SDS011;31884;52.538;13.820;2022-07-29T05:10:22;6.72;;;2.90;;
44842;SDS011;31884;52.538;13.820;2022-07-29T05:12:48;6.32;;;2.72;;
44842;SDS011;31884;52.538;13.820;2022-07-29T05:15:13;4.68;;;2.58;;
44842;SDS011;31884;52.538;13.820;2022-07-29T05:17:39;7.88;;;2.30;;
44842;SDS011;31884;52.538;13.820;2022-07-29T05:20:05;6.45;;;3.00;;
44842;SDS011;31884;52.538;13.820;2022-07-29T05:22:31;5.85;;;3.03;;
44842;SDS011;31884;52.538;13.820;2022-07-29T05:24:57;3.40;;;2.38;;
44842;SDS011;31884;52.538;13.820;2022-07-29T05:27:22;3.20;;;2.00;;
44842;SDS011;31884;52.538;13.820;2022-07-29T05:29:47;4.72;;;3.00;;
44842;SDS011;31884;52.538;13.820;2022-07-29T05:32:13;7.50;;;2.67;;
44842;SDS011;31884;52.538;13.820;2022-07-29T05:34:39;5.72;;;2.78;;
44842;SDS011;31884;52.538;13.820;2022-07-29T05:37:05;6.07;;;2.97;;
44842;SDS011;31884;52.538;13.820;2022-07-29T05:39:30;8.38;;;2.75;;
44842;SDS011;31884;52.538;13.820;2022-07-29T05:41:56;4.10;;;2.30;;
44842;SDS011;31884;52.538;13.820;2022-07-29T05:44:21;4.30;;;2.35;;
44842;SDS011;31884;52.538;13.820;2022-07-29T05:46:47;4.65;;;2.20;;
44842;SDS011;31884;52.538;13.820;2022-07-29T05:49:12;4.50;;;2.28;;
44842;SDS011;31884;52.538;13.820;2022-07-29T05:51:38;5.88;;;2.45;;
44842;SDS011;31884;52.538;13.820;2022-07-29T05:54:03;3.85;;;2.22;;
44842;SDS011;31884;52.538;13.820;2022-07-29T05:56:29;4.03;;;2.00;;
44842;SDS011;31884;52.538;13.820;2022-07-29T05:58:54;4.05;;;2.33;;
44842;SDS011;31884;52.538;13.820;2022-07-29T06:01:20;5.15;;;2.63;;
44842;SDS011;31884;52.538;13.820;2022-07-29T06:03:45;3.38;;;2.13;;
44842;SDS011;31884;52.538;13.820;2022-07-29T06:06:11;4.45;;;2.47;;
44842;SDS011;31884;52.538;13.820;2022-07-29T06:08:37;6.32;;;2.45;;
44842;SDS011;31884;52.538;13.820;2022-07-29T06:11:03;5.68;;;2.30;;
44842;SDS011;31884;52.538;13.820;2022-07-29T06:13:29;5.07;;;2.40;;
44842;SDS011;31884;52.538;13.820;2022-07-29T06:15:55;4.38;;;2.35;;
44842;SDS011;31884;52.538;13.820;2022-07-29T06:18:21;4.68;;;2.40;;
44842;SDS011;31884;52.538;13.820;2022-07-29T06:20:49;2.60;;;2.20;;
44842;SDS011;31884;52.538;13.820;2022-07-29T06:23:15;4.85;;;2.45;;
44842;SDS011;31884;52.538;13.820;2022-07-29T06:25:40;4.15;;;1.98;;
44842;SDS011;31884;52.538;13.820;2022-07-29T06:28:06;5.22;;;2.00;;
44842;SDS011;31884;52.538;13.820;2022-07-29T06:30:31;3.45;;;2.67;;
44842;SDS011;31884;52.538;13.820;2022-07-29T06:32:57;4.28;;;2.40;;
44842;SDS011;31884;52.538;13.820;2022-07-29T06:35:22;3.45;;;2.45;;
44842;SDS011;31884;52.538;13.820;2022-07-29T06:37:48;6.72;;;2.38;;
44842;SDS011;31884;52.538;13.820;2022-07-29T06:40:13;4.40;;;2.58;;
44842;SDS011;31884;52.538;13.820;2022-07-29T06:42:57;4.47;;;2.10;;
44842;SDS011;31884;52.538;13.820;2022-07-29T06:45:23;4.93;;;2.05;;
44842;SDS011;31884;52.538;13.820;2022-07-29T06:47:49;5.55;;;2.10;;
44842;SDS011;31884;52.538;13.820;2022-07-29T06:50:14;4.28;;;1.88;;
44842;SDS011;31884;52.538;13.820;2022-07-29T06:52:40;3.63;;;2.28;;
44842;SDS011;31884;52.538;13.820;2022-07-29T06:55:07;2.92;;;1.60;;
44842;SDS011;31884;52.538;13.820;2022-07-29T06:57:33;2.95;;;1.90;;
44842;SDS011;31884;52.538;13.820;2022-07-29T06:59:59;5.18;;;2.30;;
44842;SDS011;31884;52.538;13.820;2022-07-29T07:02:25;3.35;;;2.08;;
44842;SDS011;31884;52.538;13.820;2022-07-29T07:04:50;3.72;;;2.03;;
44842;SDS011;31884;52.538;13.820;2022-07-29T07:07:16;6.70;;;1.85;;
44842;SDS011;31884;52.538;13.820;2022-07-29T07:09:41;4.47;;;1.92;;
44842;SDS011;31884;52.538;13.820;2022-07-29T07:12:07;5.82;;;2.75;;
44842;SDS011;31884;52.538;13.820;2022-07-29T07:14:32;5.20;;;1.80;;
44842;SDS011;31884;52.538;13.820;2022-07-29T07:16:58;4.72;;;2.25;;
44842;SDS011;31884;52.538;13.820;2022-07-29T07:19:25;3.45;;;2.00;;
44842;SDS011;31884;52.538;13.820;2022-07-29T07:21:52;3.97;;;1.67;;
44842;SDS011;31884;52.538;13.820;2022-07-29T07:24:18;4.43;;;1.92;;
44842;SDS011;31884;52.538;13.820;2022-07-29T07:26:44;5.85;;;2.13;;
44842;SDS011;31884;52.538;13.820;2022-07-29T07:29:10;3.75;;;1.80;;
44842;SDS011;31884;52.538;13.820;2022-07-29T07:31:36;3.85;;;2.00;;
44842;SDS011;31884;52.538;13.820;2022-07-29T07:34:02;4.22;;;2.25;;
44842;SDS011;31884;52.538;13.820;2022-07-29T07:36:28;6.30;;;2.25;;
44842;SDS011;31884;52.538;13.820;2022-07-29T07:38:53;3.72;;;1.70;;
44842;SDS011;31884;52.538;13.820;2022-07-29T07:41:19;4.50;;;1.67;;
44842;SDS011;31884;52.538;13.820;2022-07-29T07:43:45;5.55;;;2.05;;
44842;SDS011;31884;52.538;13.820;2022-07-29T07:46:10;4.78;;;2.00;;
44842;SDS011;31884;52.538;13.820;2022-07-29T07:48:36;3.38;;;1.80;;
44842;SDS011;31884;52.538;13.820;2022-07-29T07:51:01;5.03;;;2.20;;
44842;SDS011;31884;52.538;13.820;2022-07-29T07:53:27;3.45;;;2.20;;
44842;SDS011;31884;52.538;13.820;2022-07-29T07:55:54;6.30;;;2.05;;
44842;SDS011;31884;52.538;13.820;2022-07-29T07:58:20;3.50;;;1.98;;
44842;SDS011;31884;52.538;13.820;2022-07-29T08:00:45;4.63;;;1.83;;
44842;SDS011;31884;52.538;13.820;2022-07-29T08:03:11;2.97;;;1.83;;
44842;SDS011;31884;52.538;13.820;2022-07-29T08:05:38;6.03;;;2.40;;
44842;SDS011;31884;52.538;13.820;2022-07-29T08:08:04;2.42;;;1.55;;
44842;SDS011;31884;52.538;13.820;2022-07-29T08:10:30;2.75;;;1.58;;
44842;SDS011;31884;52.538;13.820;2022-07-29T08:13:14;5.30;;;1.90;;
44842;SDS011;31884;52.538;13.820;2022-07-29T08:15:40;3.97;;;1.98;;
44842;SDS011;31884;52.538;13.820;2022-07-29T08:18:06;4.13;;;1.85;;
44842;SDS011;31884;52.538;13.820;2022-07-29T08:20:32;6.22;;;2.20;;
44842;SDS011;31884;52.538;13.820;2022-07-29T08:23:00;2.25;;;1.67;;
44842;SDS011;31884;52.538;13.820;2022-07-29T08:25:26;3.05;;;1.60;;
44842;SDS011;31884;52.538;13.820;2022-07-29T08:27:51;3.20;;;1.70;;
44842;SDS011;31884;52.538;13.820;2022-07-29T08:30:17;6.78;;;2.03;;
44842;SDS011;31884;52.538;13.820;2022-07-29T08:32:42;3.80;;;1.75;;
44842;SDS011;31884;52.538;13.820;2022-07-29T08:35:08;4.03;;;1.77;;
44842;SDS011;31884;52.538;13.820;2022-07-29T08:37:33;3.22;;;1.50;;
44842;SDS011;31884;52.538;13.820;2022-07-29T08:39:59;6.47;;;1.60;;
44842;SDS011;31884;52.538;13.820;2022-07-29T08:42:24;2.47;;;1.70;;
44842;SDS011;31884;52.538;13.820;2022-07-29T08:44:50;2.72;;;1.50;;
44842;SDS011;31884;52.538;13.820;2022-07-29T08:47:15;2.95;;;1.67;;
44842;SDS011;31884;52.538;13.820;2022-07-29T08:49:41;4.57;;;2.03;;
44842;SDS011;31884;52.538;13.820;2022-07-29T08:52:09;3.15;;;1.80;;
44842;SDS011;31884;52.538;13.820;2022-07-29T08:54:35;2.65;;;1.65;;
44842;SDS011;31884;52.538;13.820;2022-07-29T08:57:01;4.78;;;2.00;;
44842;SDS011;31884;52.538;13.820;2022-07-29T08:59:27;2.45;;;1.60;;
44842;SDS011;31884;52.538;13.820;2022-07-29T09:01:54;2.33;;;1.63;;
44842;SDS011;31884;52.538;13.820;2022-07-29T09:04:24;3.22;;;1.60;;
44842;SDS011;31884;52.538;13.820;2022-07-29T09:06:51;3.50;;;1.50;;
44842;SDS011;31884;52.538;13.820;2022-07-29T09:09:21;7.65;;;2.08;;
44842;SDS011;31884;52.538;13.820;2022-07-29T09:11:47;6.82;;;2.03;;
44842;SDS011;31884;52.538;13.820;2022-07-29T09:14:13;5.90;;;2.15;;
44842;SDS011;31884;52.538;13.820;2022-07-29T09:16:46;6.43;;;1.52;;
44842;SDS011;31884;52.538;13.820;2022-07-29T09:19:46;3.05;;;1.65;;
44842;SDS011;31884;52.538;13.820;2022-07-29T09:22:05;2.58;;;1.63;;
44842;SDS011;31884;52.538;13.820;2022-07-29T09:29:34;6.03;;;1.85;;
44842;SDS011;31884;52.538;13.820;2022-07-29T09:32:00;3.67;;;1.55;;
44842;SDS011;31884;52.538;13.820;2022-07-29T09:34:28;5.57;;;1.83;;
44842;SDS011;31884;52.538;13.820;2022-07-29T09:36:56;7.43;;;1.60;;
44842;SDS011;31884;52.538;13.820;2022-07-29T09:39:28;4.82;;;2.13;;
44842;SDS011;31884;52.538;13.820;2022-07-29T09:42:04;3.85;;;1.92;;
44842;SDS011;31884;52.538;13.820;2022-07-29T09:44:43;5.75;;;1.95;;
44842;SDS011;31884;52.538;13.820;2022-07-29T09:47:11;2.92;;;1.67;;
44842;SDS011;31884;52.538;13.820;2022-07-29T09:49:50;3.97;;;1.52;;
44842;SDS011;31884;52.538;13.820;2022-07-29T09:52:17;2.95;;;1.80;;
44842;SDS011;31884;52.538;13.820;2022-07-29T09:54:43;2.75;;;1.60;;
44842;SDS011;31884;52.538;13.820;2022-07-29T09:57:24;2.40;;;1.75;;
44842;SDS011;31884;52.538;13.820;2022-07-29T09:59:58;2.92;;;1.45;;
44842;SDS011;31884;52.538;13.820;2022-07-29T10:02:43;3.05;;;1.60;;
44842;SDS011;31884;52.538;13.820;2022-07-29T10:05:20;4.43;;;1.70;;
44842;SDS011;31884;52.538;13.820;2022-07-29T10:07:51;3.33;;;1.65;;
44842;SDS011;31884;52.538;13.820;2022-07-29T10:10:23;3.72;;;1.80;;
44842;SDS011;31884;52.538;13.820;2022-07-29T10:12:55;7.25;;;2.22;;
44842;SDS011;31884;52.538;13.820;2022-07-29T10:15:23;4.38;;;1.60;;
44842;SDS011;31884;52.538;13.820;2022-07-29T10:17:51;4.28;;;1.80;;
44842;SDS011;31884;52.538;13.820;2022-07-29T10:20:18;2.35;;;1.45;;
44842;SDS011;31884;52.538;13.820;2022-07-29T10:22:44;3.67;;;1.70;;
44842;SDS011;31884;52.538;13.820;2022-07-29T10:25:11;2.45;;;1.73;;
44842;SDS011;31884;52.538;13.820;2022-07-29T10:27:38;5.15;;;2.03;;
44842;SDS011;31884;52.538;13.820;2022-07-29T10:30:04;3.17;;;1.80;;
44842;SDS011;31884;52.538;13.820;2022-07-29T10:38:04;4.10;;;1.85;;
44842;SDS011;31884;52.538;13.820;2022-07-29T10:40:46;4.15;;;2.10;;
44842;SDS011;31884;52.538;13.820;2022-07-29T10:43:45;4.05;;;1.83;;
44842;SDS011;31884;52.538;13.820;2022-07-29T10:46:12;3.97;;;1.60;;
44842;SDS011;31884;52.538;13.820;2022-07-29T10:54:47;3.72;;;1.90;;
44842;SDS011;31884;52.538;13.820;2022-07-29T10:59:46;3.95;;;1.88;;
44842;SDS011;31884;52.538;13.820;2022-07-29T11:05:04;4.22;;;1.70;;
44842;SDS011;31884;52.538;13.820;2022-07-29T11:07:33;4.57;;;1.90;;
44842;SDS011;31884;52.538;13.820;2022-07-29T11:15:08;4.10;;;2.30;;
44842;SDS011;31884;52.538;13.820;2022-07-29T11:23:26;4.15;;;2.30;;
44842;SDS011;31884;52.538;13.820;2022-07-29T11:39:42;3.15;;;2.00;;
44842;SDS011;31884;52.538;13.820;2022-07-29T11:45:10;3.90;;;2.05;;
44842;SDS011;31884;52.538;13.820;2022-07-29T11:50:13;3.92;;;2.17;;
44842;SDS011;31884;52.538;13.820;2022-07-29T11:52:41;3.58;;;2.10;;
44842;SDS011;31884;52.538;13.820;2022-07-29T11:55:15;3.15;;;2.00;;
44842;SDS011;31884;52.538;13.820;2022-07-29T11:57:52;3.35;;;2.22;;
44842;SDS011;31884;52.538;13.820;2022-07-29T12:00:24;4.03;;;2.25;;
44842;SDS011;31884;52.538;13.820;2022-07-29T12:02:55;4.82;;;2.28;;
44842;SDS011;31884;52.538;13.820;2022-07-29T12:05:30;4.65;;;2.40;;
44842;SDS011;31884;52.538;13.820;2022-07-29T12:07:58;7.03;;;2.65;;
44842;SDS011;31884;52.538;13.820;2022-07-29T12:10:30;3.95;;;2.20;;
44842;SDS011;31884;52.538;13.820;2022-07-29T12:12:55;3.83;;;2.47;;
44842;SDS011;31884;52.538;13.820;2022-07-29T12:15:21;3.40;;;2.17;;
44842;SDS011;31884;52.538;13.820;2022-07-29T12:17:48;4.40;;;2.60;;
44842;SDS011;31884;52.538;13.820;2022-07-29T12:20:21;3.30;;;2.33;;
44842;SDS011;31884;52.538;13.820;2022-07-29T12:22:49;15.65;;;3.05;;
44842;SDS011;31884;52.538;13.820;2022-07-29T12:25:15;5.63;;;2.90;;
44842;SDS011;31884;52.538;13.820;2022-07-29T12:27:41;5.22;;;2.25;;
44842;SDS011;31884;52.538;13.820;2022-07-29T12:30:12;3.33;;;2.30;;
44842;SDS011;31884;52.538;13.820;2022-07-29T12:32:41;6.55;;;2.42;;
44842;SDS011;31884;52.538;13.820;2022-07-29T12:35:13;3.55;;;2.40;;
44842;SDS011;31884;52.538;13.820;2022-07-29T12:37:41;4.95;;;2.42;;
44842;SDS011;31884;52.538;13.820;2022-07-29T12:40:08;4.85;;;2.42;;
44842;SDS011;31884;52.538;13.820;2022-07-29T12:42:36;10.30;;;2.60;;
44842;SDS011;31884;52.538;13.820;2022-07-29T12:45:02;6.43;;;2.55;;
44842;SDS011;31884;52.538;13.820;2022-07-29T12:47:29;4.47;;;2.42;;
44842;SDS011;31884;52.538;13.820;2022-07-29T12:50:08;8.27;;;2.10;;
44842;SDS011;31884;52.538;13.820;2022-07-29T12:52:34;5.55;;;2.75;;
44842;SDS011;31884;52.538;13.820;2022-07-29T12:55:01;3.17;;;2.08;;
44842;SDS011;31884;52.538;13.820;2022-07-29T12:57:27;3.88;;;2.15;;
44842;SDS011;31884;52.538;13.820;2022-07-29T13:00:03;3.92;;;2.40;;
44842;SDS011;31884;52.538;13.820;2022-07-29T13:02:34;2.92;;;2.05;;
44842;SDS011;31884;52.538;13.820;2022-07-29T13:05:00;4.57;;;2.05;;
44842;SDS011;31884;52.538;13.820;2022-07-29T13:07:27;4.68;;;2.53;;
44842;SDS011;31884;52.538;13.820;2022-07-29T13:10:09;4.80;;;2.10;;
44842;SDS011;31884;52.538;13.820;2022-07-29T13:12:34;5.10;;;2.42;;
44842;SDS011;31884;52.538;13.820;2022-07-29T13:15:00;4.50;;;1.90;;
44842;SDS011;31884;52.538;13.820;2022-07-29T13:17:41;3.55;;;2.10;;
44842;SDS011;31884;52.538;13.820;2022-07-29T13:20:09;5.95;;;3.17;;
44842;SDS011;31884;52.538;13.820;2022-07-29T13:22:39;3.50;;;1.95;;
44842;SDS011;31884;52.538;13.820;2022-07-29T13:25:07;4.32;;;2.40;;
44842;SDS011;31884;52.538;13.820;2022-07-29T13:27:34;2.85;;;2.30;;
44842;SDS011;31884;52.538;13.820;2022-07-29T13:30:02;5.03;;;2.55;;
44842;SDS011;31884;52.538;13.820;2022-07-29T13:32:30;3.90;;;2.40;;
44842;SDS011;31884;52.538;13.820;2022-07-29T13:34:57;4.25;;;2.20;;
44842;SDS011;31884;52.538;13.820;2022-07-29T13:37:24;4.60;;;2.35;;
44842;SDS011;31884;52.538;13.820;2022-07-29T13:39:50;3.80;;;2.30;;
44842;SDS011;31884;52.538;13.820;2022-07-29T13:42:17;4.45;;;2.58;;
44842;SDS011;31884;52.538;13.820;2022-07-29T13:44:42;6.07;;;2.28;;
44842;SDS011;31884;52.538;13.820;2022-07-29T13:47:08;4.40;;;2.42;;
44842;SDS011;31884;52.538;13.820;2022-07-29T13:49:33;3.63;;;2.13;;
44842;SDS011;31884;52.538;13.820;2022-07-29T13:51:59;4.60;;;2.25;;
44842;SDS011;31884;52.538;13.820;2022-07-29T13:54:25;3.65;;;2.15;;
44842;SDS011;31884;52.538;13.820;2022-07-29T13:56:50;4.32;;;2.10;;
44842;SDS011;31884;52.538;13.820;2022-07-29T13:59:16;5.90;;;2.35;;
44842;SDS011;31884;52.538;13.820;2022-07-29T14:01:41;4.97;;;2.42;;
44842;SDS011;31884;52.538;13.820;2022-07-29T14:04:07;3.35;;;2.25;;
44842;SDS011;31884;52.538;13.820;2022-07-29T14:06:34;5.50;;;2.30;;
44842;SDS011;31884;52.538;13.820;2022-07-29T14:08:59;3.30;;;2.20;;
44842;SDS011;31884;52.538;13.820;2022-07-29T14:11:25;3.03;;;2.03;;
44842;SDS011;31884;52.538;13.820;2022-07-29T14:13:50;3.33;;;2.10;;
44842;SDS011;31884;52.538;13.820;2022-07-29T14:16:16;3.30;;;1.98;;
44842;SDS011;31884;52.538;13.820;2022-07-29T14:18:41;2.58;;;2.10;;
44842;SDS011;31884;52.538;13.820;2022-07-29T14:21:07;4.03;;;1.98;;
44842;SDS011;31884;52.538;13.820;2022-07-29T14:23:32;4.63;;;2.60;;
44842;SDS011;31884;52.538;13.820;2022-07-29T14:25:58;7.38;;;1.95;;
44842;SDS011;31884;52.538;13.820;2022-07-29T14:28:23;4.75;;;2.28;;
44842;SDS011;31884;52.538;13.820;2022-07-29T14:30:49;4.43;;;2.13;;
44842;SDS011;31884;52.538;13.820;2022-07-29T14:33:14;2.63;;;1.65;;
44842;SDS011;31884;52.538;13.820;2022-07-29T14:35:40;3.30;;;1.70;;
44842;SDS011;31884;52.538;13.820;2022-07-29T14:38:06;2.80;;;1.70;;
44842;SDS011;31884;52.538;13.820;2022-07-29T14:40:31;3.58;;;1.45;;
44842;SDS011;31884;52.538;13.820;2022-07-29T14:42:57;2.97;;;2.10;;
44842;SDS011;31884;52.538;13.820;2022-07-29T14:45:22;3.38;;;1.67;;
44842;SDS011;31884;52.538;13.820;2022-07-29T14:47:48;6.07;;;2.25;;
44842;SDS011;31884;52.538;13.820;2022-07-29T14:50:14;5.13;;;2.03;;
44842;SDS011;31884;52.538;13.820;2022-07-29T14:52:40;2.88;;;1.80;;
44842;SDS011;31884;52.538;13.820;2022-07-29T14:55:06;5.93;;;1.90;;
44842;SDS011;31884;52.538;13.820;2022-07-29T14:57:31;7.40;;;2.33;;
44842;SDS011;31884;52.538;13.820;2022-07-29T14:59:57;3.92;;;1.70;;
44842;SDS011;31884;52.538;13.820;2022-07-29T15:02:22;2.95;;;1.75;;
44842;SDS011;31884;52.538;13.820;2022-07-29T15:04:48;4.10;;;1.88;;
44842;SDS011;31884;52.538;13.820;2022-07-29T15:07:14;2.72;;;1.80;;
44842;SDS011;31884;52.538;13.820;2022-07-29T15:09:40;3.97;;;1.90;;
44842;SDS011;31884;52.538;13.820;2022-07-29T15:12:06;3.03;;;1.90;;
44842;SDS011;31884;52.538;13.820;2022-07-29T15:14:32;4.47;;;2.15;;
44842;SDS011;31884;52.538;13.820;2022-07-29T15:16:58;4.90;;;1.77;;
44842;SDS011;31884;52.538;13.820;2022-07-29T15:19:24;3.30;;;1.30;;
44842;SDS011;31884;52.538;13.820;2022-07-29T15:21:49;5.18;;;2.17;;
44842;SDS011;31884;52.538;13.820;2022-07-29T15:24:18;3.92;;;1.90;;
44842;SDS011;31884;52.538;13.820;2022-07-29T15:26:44;5.13;;;2.13;;
44842;SDS011;31884;52.538;13.820;2022-07-29T15:29:11;6.03;;;2.28;;
44842;SDS011;31884;52.538;13.820;2022-07-29T15:31:36;2.78;;;1.75;;
44842;SDS011;31884;52.538;13.820;2022-07-29T15:34:02;7.15;;;1.80;;
44842;SDS011;31884;52.538;13.820;2022-07-29T15:36:27;2.58;;;1.55;;
44842;SDS011;31884;52.538;13.820;2022-07-29T15:38:53;6.50;;;1.95;;
44842;SDS011;31884;52.538;13.820;2022-07-29T15:41:19;5.25;;;2.20;;